Time;durP1;ratioP1;P1;durP2;ratioP2;P2;SDS_P1;SDS_P2;PMS_P1;PMS_P2;Temp;Humidity;BMP_temperature;BMP_pressure;BME280_temperature;BME280_humidity;BME280_pressure;Samples;Min_cycle;Max_cycle;Signal;HPM_P1;HPM_P2
2021/03/13 00:00:09;;;;;;;6.47;1.20;;;;;;;6.09;63.31;95344.59;1285271;23;20004;-70
2021/03/13 00:00:40;;;;;;;4.35;1.63;;;;;;;6.08;63.55;95347.47;1284286;23;20016;-69
2021/03/13 00:01:10;;;;;;;2.80;1.17;;;;;;;6.08;63.15;95356.22;1284801;23;20052;-69
2021/03/13 00:01:41;;;;;;;6.63;1.30;;;;;;;6.08;62.71;95356.22;1285350;23;20064;-69
2021/03/13 00:02:11;;;;;;;3.73;1.20;;;;;;;6.10;62.82;95359.44;1285541;23;20313;-70
2021/03/13 00:02:42;;;;;;;6.93;1.40;;;;;;;6.09;63.36;95359.69;1286260;23;20411;-70
2021/03/13 00:03:13;;;;;;;4.43;1.30;;;;;;;6.06;62.90;95352.25;1286728;23;20008;-69
2021/03/13 00:03:43;;;;;;;3.57;1.27;;;;;;;6.06;62.94;95360.22;1286914;23;19997;-71
2021/03/13 00:04:13;;;;;;;7.73;1.70;;;;;;;6.08;62.83;95350.13;1286627;23;19999;-69
2021/03/13 00:04:44;;;;;;;4.97;1.50;;;;;;;6.09;63.33;95363.16;1287039;23;19995;-73
2021/03/13 00:05:24;;;;;;;5.10;1.13;;;;;;;6.10;62.77;95353.34;1286742;23;20000;-69
2021/03/13 00:05:55;;;;;;;;;;;;;;;6.09;63.07;95349.88;1287080;23;20067;-69
2021/03/13 00:06:25;;;;;;;6.37;1.70;;;;;;;6.11;62.70;95357.59;1286427;23;19900;-71
2021/03/13 00:06:55;;;;;;;5.97;1.50;;;;;;;6.12;62.89;95348.56;1286547;23;19996;-69
2021/03/13 00:07:26;;;;;;;7.43;1.30;;;;;;;6.15;62.38;95348.06;1286425;23;20007;-70
2021/03/13 00:07:56;;;;;;;6.40;1.30;;;;;;;6.15;62.54;95356.81;1287261;23;20000;-69
2021/03/13 00:08:27;;;;;;;3.60;1.30;;;;;;;6.17;62.65;95354.69;1292799;23;20000;-70
2021/03/13 00:08:57;;;;;;;5.43;1.13;;;;;;;6.16;62.62;95361.06;1292761;23;20007;-68
2021/03/13 00:09:27;;;;;;;5.33;1.47;;;;;;;6.18;63.10;95358.13;1287074;23;20024;-70
2021/03/13 00:09:58;;;;;;;4.80;0.90;;;;;;;6.18;62.47;95358.13;1287107;23;20001;-70
2021/03/13 00:10:28;;;;;;;5.50;1.30;;;;;;;6.16;62.59;95362.91;1286893;23;19996;-70
2021/03/13 00:10:59;;;;;;;8.07;1.50;;;;;;;6.19;63.07;95357.09;1285738;23;20008;-68
2021/03/13 00:11:30;;;;;;;3.53;1.23;;;;;;;6.16;63.20;95357.63;1287091;23;20027;-69
2021/03/13 00:12:00;;;;;;;4.63;1.30;;;;;;;6.15;63.05;95361.31;1287094;23;19993;-69
2021/03/13 00:12:31;;;;;;;4.67;1.63;;;;;;;6.13;63.10;95358.91;1285667;23;20000;-68
2021/03/13 00:13:01;;;;;;;3.80;1.20;;;;;;;6.15;62.98;95361.31;1285967;23;20123;-69
2021/03/13 00:13:32;;;;;;;5.80;1.20;;;;;;;6.18;63.21;95363.44;1287159;23;20004;-68
2021/03/13 00:14:02;;;;;;;6.17;1.33;;;;;;;6.16;62.86;95358.41;1286951;23;19992;-68
2021/03/13 00:14:33;;;;;;;3.20;1.00;;;;;;;6.20;62.83;95358.69;1286673;23;20021;-68
2021/03/13 00:15:04;;;;;;;5.70;1.40;;;;;;;6.15;63.24;95363.97;1286166;23;20024;-69
2021/03/13 00:15:35;;;;;;;4.32;1.10;;;;;;;6.15;63.35;95364.78;1280706;23;20005;-68
2021/03/13 00:16:05;;;;;;;6.10;1.30;;;;;;;6.16;63.32;95361.06;1274396;23;20327;-69
2021/03/13 00:16:36;;;;;;;4.17;1.10;;;;;;;6.14;63.18;95349.09;1280295;23;20056;-69
2021/03/13 00:17:06;;;;;;;6.23;1.27;;;;;;;6.18;63.46;95366.09;1280101;23;20505;-68
2021/03/13 00:17:37;;;;;;;4.47;1.00;;;;;;;6.16;63.11;95362.91;1286708;23;20044;-68
2021/03/13 00:18:08;;;;;;;5.23;1.10;;;;;;;6.21;63.13;95366.41;1287150;23;20043;-69
2021/03/13 00:18:38;;;;;;;2.72;0.90;;;;;;;6.24;62.93;95357.94;1286825;23;19996;-68
2021/03/13 00:19:09;;;;;;;4.73;1.20;;;;;;;6.25;62.77;95362.19;1287106;23;20000;-68
2021/03/13 00:19:39;;;;;;;5.20;1.10;;;;;;;6.25;62.59;95356.06;1286648;23;20072;-69
2021/03/13 00:20:10;;;;;;;3.50;1.20;;;;;;;6.25;62.98;95362.19;1287007;23;19992;-69
2021/03/13 00:20:41;;;;;;;5.85;1.13;;;;;;;6.24;62.73;95363.25;1288486;23;19993;-70
2021/03/13 00:21:12;;;;;;;4.40;1.00;;;;;;;6.25;62.76;95369.34;1293900;23;20052;-68
2021/03/13 00:21:42;;;;;;;4.83;1.20;;;;;;;6.24;63.15;95368.53;1291713;23;20050;-68
2021/03/13 00:22:12;;;;;;;2.60;0.90;;;;;;;6.23;63.11;95361.63;1284990;23;20000;-69
2021/03/13 00:22:43;;;;;;;3.20;0.87;;;;;;;6.23;62.90;95363.47;1285273;23;20000;-69
2021/03/13 00:23:14;;;;;;;4.18;1.00;;;;;;;6.26;62.93;95357.66;1285130;23;20003;-69
2021/03/13 00:23:44;;;;;;;4.93;1.10;;;;;;;6.26;63.32;95355.00;1285467;23;20004;-69
2021/03/13 00:24:15;;;;;;;6.10;1.40;;;;;;;6.29;62.93;95364.28;1285767;23;19988;-68
2021/03/13 00:24:45;;;;;;;6.13;1.33;;;;;;;6.27;62.70;95361.91;1285261;23;19996;-68
2021/03/13 00:25:16;;;;;;;3.97;1.00;;;;;;;6.26;62.83;95349.72;1285390;23;20001;-69
2021/03/13 00:25:46;;;;;;;3.53;0.93;;;;;;;6.27;63.37;95361.13;1285621;23;20004;-70
2021/03/13 00:26:16;;;;;;;4.47;1.43;;;;;;;6.27;63.25;95364.56;1286951;23;20004;-69
2021/03/13 00:26:47;;;;;;;4.03;1.10;;;;;;;6.26;63.87;95360.31;1286971;23;20001;-69
2021/03/13 00:27:17;;;;;;;5.23;1.30;;;;;;;6.28;63.39;95360.06;1286829;23;19992;-69
2021/03/13 00:27:48;;;;;;;2.90;0.93;;;;;;;6.31;63.28;95365.66;1287771;23;20005;-69
2021/03/13 00:28:18;;;;;;;5.03;1.47;;;;;;;6.28;63.11;95360.84;1285828;23;20004;-69
2021/03/13 00:28:49;;;;;;;6.80;1.57;;;;;;;6.28;63.18;95368.81;1285449;23;20008;-68
2021/03/13 00:29:19;;;;;;;4.67;1.20;;;;;;;6.30;63.38;95357.97;1285341;23;20008;-68
2021/03/13 00:29:49;;;;;;;3.73;0.90;;;;;;;6.29;63.45;95359.78;1285215;23;19997;-68
2021/03/13 00:30:31;;;;;;;6.07;1.30;;;;;;;6.28;63.14;95373.31;1285253;23;19992;-68
2021/03/13 00:31:01;;;;;;;4.72;1.02;;;;;;;6.28;63.45;95368.81;1284763;23;20489;-68
2021/03/13 00:31:32;;;;;;;5.60;1.40;;;;;;;6.30;63.50;95352.66;1285092;23;20024;-69
2021/03/13 00:32:02;;;;;;;5.33;1.33;;;;;;;6.28;63.65;95360.06;1285059;23;20469;-68
2021/03/13 00:32:32;;;;;;;5.77;1.40;;;;;;;6.25;63.64;95358.72;1284976;23;20433;-68
2021/03/13 00:33:14;;;;;;;3.90;1.10;;;;;;;6.23;64.07;95358.97;1285249;23;20004;-68
2021/03/13 00:33:45;;;;;;;5.20;1.17;;;;;;;6.22;64.04;95362.69;1285442;23;20072;-68
2021/03/13 00:34:15;;;;;;;4.33;1.13;;;;;;;6.21;63.54;95355.78;1285288;23;20003;-68
2021/03/13 00:34:46;;;;;;;4.40;1.00;;;;;;;6.21;63.71;95361.09;1285413;23;20046;-68
2021/03/13 00:35:16;;;;;;;5.83;1.53;;;;;;;6.19;63.89;95359.72;1285393;23;20019;-69
2021/03/13 00:35:48;;;;;;;4.60;1.40;;;;;;;6.20;63.96;95364.81;1286684;23;20011;-68
2021/03/13 00:36:18;;;;;;;3.63;1.10;;;;;;;6.24;64.15;95349.97;1287005;23;20035;-68
2021/03/13 00:36:49;;;;;;;7.03;1.20;;;;;;;6.24;63.76;95360.59;1285791;23;19996;-68
2021/03/13 00:37:20;;;;;;;7.27;1.17;;;;;;;6.25;64.50;95364.03;1284973;23;20001;-67
2021/03/13 00:37:50;;;;;;;6.00;1.70;;;;;;;6.23;64.13;95358.97;1285207;23;20008;-68
2021/03/13 00:38:21;;;;;;;7.97;1.10;;;;;;;6.22;63.83;95352.06;1284585;23;20076;-68
2021/03/13 00:38:51;;;;;;;4.13;1.30;;;;;;;6.21;64.03;95361.09;1284686;23;20336;-68
2021/03/13 00:39:22;;;;;;;5.53;1.17;;;;;;;6.23;64.00;95356.31;1284959;23;20001;-68
2021/03/13 00:39:52;;;;;;;4.93;1.20;;;;;;;6.24;64.16;95359.75;1284947;23;19996;-68
2021/03/13 00:40:24;;;;;;;2.47;0.80;;;;;;;6.23;64.28;95351.00;1284809;23;20322;-68
2021/03/13 00:40:54;;;;;;;4.30;1.25;;;;;;;6.20;64.93;95370.13;1290635;23;20429;-68
2021/03/13 00:41:25;;;;;;;5.00;1.27;;;;;;;6.19;64.50;95349.94;1290698;23;20029;-68
2021/03/13 00:41:55;;;;;;;3.77;1.10;;;;;;;6.21;64.78;95347.03;1290775;23;20000;-68
2021/03/13 00:42:26;;;;;;;5.40;0.97;;;;;;;6.20;65.17;95353.41;1290523;23;20000;-68
2021/03/13 00:42:56;;;;;;;4.23;1.03;;;;;;;6.18;64.94;95358.94;1284280;23;20000;-68
2021/03/13 00:43:27;;;;;;;4.30;1.20;;;;;;;6.25;64.28;95351.56;1284268;23;20021;-68
2021/03/13 00:43:57;;;;;;;4.33;1.20;;;;;;;6.24;64.48;95357.94;1284392;23;20423;-68
2021/03/13 00:44:28;;;;;;;5.13;1.30;;;;;;;6.22;64.65;95357.38;1284467;23;20009;-68
2021/03/13 00:44:58;;;;;;;7.97;1.23;;;;;;;6.20;64.92;95356.03;1284384;23;20024;-68
2021/03/13 00:45:28;;;;;;;3.77;1.10;;;;;;;6.21;65.07;95353.13;1284490;23;20465;-68
2021/03/13 00:45:59;;;;;;;7.17;1.00;;;;;;;6.20;65.19;95353.41;1284527;23;20007;-68
2021/03/13 00:46:29;;;;;;;5.20;1.40;;;;;;;6.16;65.70;95350.44;1284371;23;20410;-69
2021/03/13 00:47:00;;;;;;;3.20;0.97;;;;;;;6.16;66.21;95347.78;1284899;23;20473;-70
2021/03/13 00:47:30;;;;;;;4.90;1.20;;;;;;;6.16;65.32;95354.97;1284189;23;20038;-68
2021/03/13 00:48:01;;;;;;;3.07;1.20;;;;;;;6.19;65.17;95359.72;1284388;23;20011;-68
2021/03/13 00:48:31;;;;;;;4.73;1.00;;;;;;;6.24;65.36;95365.91;1284304;23;20024;-69
2021/03/13 00:49:03;;;;;;;5.57;1.40;;;;;;;6.23;65.47;95348.34;1284511;23;20083;-68
2021/03/13 00:49:34;;;;;;;3.47;1.08;;;;;;;6.23;65.94;95350.22;1284946;23;19993;-68
2021/03/13 00:50:05;;;;;;;4.57;1.23;;;;;;;6.23;65.82;95350.22;1284896;23;20005;-68
2021/03/13 00:50:37;;;;;;;5.43;1.47;;;;;;;6.22;65.27;95352.06;1284969;23;19997;-68
2021/03/13 00:51:07;;;;;;;3.33;0.93;;;;;;;6.20;66.10;95356.03;1284699;23;20696;-68
2021/03/13 00:51:37;;;;;;;5.73;1.30;;;;;;;6.23;66.17;95352.88;1284814;23;19997;-70
2021/03/13 00:52:08;;;;;;;5.80;1.13;;;;;;;6.19;66.20;95355.25;1284508;23;19993;-69
2021/03/13 00:52:38;;;;;;;5.50;1.13;;;;;;;6.19;66.13;95354.44;1284782;23;19996;-69
2021/03/13 00:53:09;;;;;;;5.37;1.27;;;;;;;6.15;66.36;95354.16;1284544;23;20105;-69
2021/03/13 00:53:39;;;;;;;6.60;1.63;;;;;;;6.13;67.02;95352.81;1284233;23;20517;-69
2021/03/13 00:54:10;;;;;;;3.73;1.20;;;;;;;6.13;66.43;95356.25;1284460;23;19997;-69
2021/03/13 00:54:40;;;;;;;4.90;1.30;;;;;;;6.13;66.46;95353.59;1284243;23;19999;-70
2021/03/13 00:55:11;;;;;;;5.33;1.40;;;;;;;6.11;66.98;95345.13;1284641;23;20330;-70
2021/03/13 00:55:42;;;;;;;4.27;1.20;;;;;;;6.14;66.34;95351.75;1284929;23;20351;-69
2021/03/13 00:56:12;;;;;;;4.47;1.20;;;;;;;6.16;66.38;95352.31;1284897;23;19999;-69
2021/03/13 00:56:42;;;;;;;6.77;1.70;;;;;;;6.16;66.57;95339.84;1284778;23;20212;-69
2021/03/13 00:57:13;;;;;;;3.73;1.20;;;;;;;6.15;66.10;95348.84;1284285;23;20055;-69
2021/03/13 00:57:43;;;;;;;4.70;1.10;;;;;;;6.18;66.70;95355.50;1284331;23;20001;-69
2021/03/13 00:58:14;;;;;;;4.60;1.10;;;;;;;6.13;66.72;95345.66;1284118;23;20358;-69
2021/03/13 00:58:44;;;;;;;6.87;1.20;;;;;;;6.16;66.81;95344.34;1284010;23;19992;-69
2021/03/13 00:59:15;;;;;;;4.63;1.13;;;;;;;6.13;67.04;95339.53;1284558;23;20004;-69
2021/03/13 00:59:45;;;;;;;9.40;1.73;;;;;;;6.15;66.85;95348.06;1284496;23;20012;-69
2021/03/13 01:00:17;;;;;;;6.77;1.20;;;;;;;6.16;66.68;95345.16;1284694;23;20646;-69
2021/03/13 01:00:48;;;;;;;4.15;1.20;;;;;;;6.15;66.79;95348.84;1284755;23;20067;-69
2021/03/13 01:01:18;;;;;;;3.67;1.20;;;;;;;6.13;67.11;95353.59;1284949;23;20434;-69
2021/03/13 01:01:49;;;;;;;4.80;1.43;;;;;;;6.14;67.06;95355.22;1286576;23;20001;-69
2021/03/13 01:02:19;;;;;;;4.63;1.10;;;;;;;6.13;66.58;95352.81;1285947;23;20004;-69
2021/03/13 01:02:50;;;;;;;5.90;1.40;;;;;;;6.12;67.17;95348.56;1284754;23;20001;-69
2021/03/13 01:03:20;;;;;;;12.20;1.20;;;;;;;6.10;67.50;95356.00;1284512;23;20055;-69
2021/03/13 01:03:50;;;;;;;4.43;1.10;;;;;;;6.11;67.49;95352.28;1284147;23;20020;-69
2021/03/13 01:04:22;;;;;;;4.30;1.23;;;;;;;6.10;67.39;95351.47;1284800;23;20354;-69
2021/03/13 01:04:52;;;;;;;4.45;1.52;;;;;;;6.11;67.02;95345.13;1284802;23;20074;-69
2021/03/13 01:05:22;;;;;;;5.07;1.40;;;;;;;6.11;67.26;95346.97;1284349;23;20008;-69
2021/03/13 01:05:53;;;;;;;4.73;1.30;;;;;;;6.08;67.13;95353.56;1284716;23;19997;-69
2021/03/13 01:06:23;;;;;;;4.33;1.00;;;;;;;6.06;67.37;95353.03;1284819;23;20377;-69
2021/03/13 01:06:54;;;;;;;5.47;1.10;;;;;;;6.09;67.29;95354.38;1284649;23;20003;-69
2021/03/13 01:07:24;;;;;;;6.57;1.23;;;;;;;6.05;67.57;95364.72;1284762;23;20001;-68
2021/03/13 01:07:54;;;;;;;3.93;1.10;;;;;;;6.12;67.07;95353.88;1284349;23;19992;-69
2021/03/13 01:08:25;;;;;;;4.90;1.00;;;;;;;6.08;67.48;95348.28;1284314;23;20004;-69
2021/03/13 01:08:55;;;;;;;4.43;1.07;;;;;;;6.08;67.51;95356.22;1284301;23;19997;-69
2021/03/13 01:09:26;;;;;;;7.10;1.07;;;;;;;6.06;67.26;95353.03;1284358;23;20335;-69
2021/03/13 01:09:56;;;;;;;5.50;1.30;;;;;;;6.06;67.67;95361.00;1284828;23;20402;-69
2021/03/13 01:10:37;;;;;;;4.77;1.17;;;;;;;6.05;68.12;95353.31;1284793;23;20000;-68
2021/03/13 01:11:07;;;;;;;6.13;1.20;;;;;;;6.07;67.52;95356.50;1284742;23;19993;-68
2021/03/13 01:11:38;;;;;;;9.40;1.83;;;;;;;6.07;68.22;95351.97;1284806;23;20000;-68
2021/03/13 01:12:08;;;;;;;5.53;1.30;;;;;;;6.03;68.18;95358.84;1284840;23;20415;-68
2021/03/13 01:12:40;;;;;;;3.83;1.10;;;;;;;6.02;67.95;95356.47;1278315;23;20001;-68
2021/03/13 01:13:11;;;;;;;7.63;1.50;;;;;;;6.01;67.92;95355.66;1278149;23;19993;-68
2021/03/13 01:13:41;;;;;;;9.37;1.10;;;;;;;6.02;67.64;95353.81;1278261;23;20458;-68
2021/03/13 01:14:13;;;;;;;3.67;1.00;;;;;;;6.01;68.16;95353.00;1278953;23;20004;-68
2021/03/13 01:14:44;;;;;;;5.13;1.38;;;;;;;5.98;68.52;95367.56;1290781;23;19996;-68
2021/03/13 01:15:17;;;;;;;5.03;1.10;;;;;;;5.95;68.37;95354.84;1290016;23;20011;-68
2021/03/13 01:15:47;;;;;;;3.38;0.90;;;;;;;5.95;68.18;95364.66;1284547;23;20004;-68
2021/03/13 01:16:18;;;;;;;3.47;1.30;;;;;;;5.95;68.27;95357.50;1284783;23;19993;-69
2021/03/13 01:16:48;;;;;;;3.60;1.00;;;;;;;5.98;68.46;95351.66;1284867;23;20000;-68
2021/03/13 01:17:18;;;;;;;5.50;1.37;;;;;;;5.98;68.58;95359.63;1284414;23;20050;-68
2021/03/13 01:17:49;;;;;;;6.87;1.07;;;;;;;5.97;68.64;95360.69;1284486;23;20004;-69
2021/03/13 01:18:20;;;;;;;3.63;1.23;;;;;;;5.97;68.37;95354.56;1284393;23;20015;-69
2021/03/13 01:18:50;;;;;;;3.17;1.10;;;;;;;5.98;68.41;95358.81;1284400;23;20001;-69
2021/03/13 01:19:20;;;;;;;3.30;1.40;;;;;;;5.96;68.29;95358.28;1284623;23;20001;-69
2021/03/13 01:19:51;;;;;;;4.90;1.50;;;;;;;5.95;68.55;95357.50;1284977;23;20000;-69
2021/03/13 01:20:22;;;;;;;4.57;1.10;;;;;;;5.99;68.04;95350.63;1284687;23;20299;-69
2021/03/13 01:20:52;;;;;;;4.28;1.20;;;;;;;5.96;68.70;95359.09;1285123;23;20001;-69
2021/03/13 01:21:23;;;;;;;4.87;1.23;;;;;;;5.97;68.54;95343.97;1284644;23;20541;-69
2021/03/13 01:21:53;;;;;;;3.53;1.07;;;;;;;5.96;68.62;95352.97;1284940;23;20000;-69
2021/03/13 01:22:24;;;;;;;7.20;1.53;;;;;;;5.94;68.69;95336.53;1284431;23;20426;-69
2021/03/13 01:22:54;;;;;;;5.70;1.00;;;;;;;5.95;68.75;95357.50;1284896;23;19988;-69
2021/03/13 01:23:25;;;;;;;2.60;1.00;;;;;;;5.92;69.04;95350.03;1284549;23;20027;-68
2021/03/13 01:23:55;;;;;;;6.80;1.10;;;;;;;5.91;69.25;95345.78;1284487;23;20001;-67
2021/03/13 01:24:26;;;;;;;5.83;1.27;;;;;;;5.90;68.98;95357.44;1284447;23;20001;-69
2021/03/13 01:24:56;;;;;;;5.40;1.50;;;;;;;5.90;68.99;95357.44;1278410;23;19993;-68
2021/03/13 01:25:26;;;;;;;6.67;1.10;;;;;;;5.90;68.36;95354.78;1284311;23;20001;-69
2021/03/13 01:25:57;;;;;;;4.47;1.10;;;;;;;5.89;68.84;95345.22;1284406;23;19993;-68
2021/03/13 01:26:27;;;;;;;8.13;1.00;;;;;;;5.93;69.33;95346.31;1284419;23;20004;-68
2021/03/13 01:26:58;;;;;;;5.17;1.20;;;;;;;5.96;69.08;95353.78;1284804;23;20302;-68
2021/03/13 01:27:28;;;;;;;9.23;1.90;;;;;;;5.98;68.73;95351.66;1284677;23;20414;-68
2021/03/13 01:27:58;;;;;;;2.87;1.00;;;;;;;6.01;68.71;95360.19;1284783;23;20271;-69
2021/03/13 01:28:29;;;;;;;3.80;1.03;;;;;;;6.01;68.96;95357.53;1284538;23;19996;-68
2021/03/13 01:28:59;;;;;;;4.30;1.33;;;;;;;5.99;69.06;95349.84;1284376;23;20083;-68
2021/03/13 01:29:30;;;;;;;3.37;0.97;;;;;;;5.99;68.99;95355.94;1284350;23;20003;-68
2021/03/13 01:30:00;;;;;;;3.43;1.27;;;;;;;6.02;69.01;95351.94;1284346;23;20000;-69
2021/03/13 01:30:31;;;;;;;5.13;1.13;;;;;;;6.01;69.22;95350.34;1284271;23;20076;-69
2021/03/13 01:31:01;;;;;;;5.43;1.33;;;;;;;6.00;68.67;95354.06;1284646;23;20038;-68
2021/03/13 01:31:31;;;;;;;6.40;1.27;;;;;;;6.03;68.74;95353.53;1284725;23;19996;-69
2021/03/13 01:32:03;;;;;;;4.50;1.00;;;;;;;6.03;68.88;95348.25;1284329;23;20000;-69
2021/03/13 01:32:34;;;;;;;7.97;1.90;;;;;;;6.07;68.69;95345.88;1284330;23;20094;-68
2021/03/13 01:33:04;;;;;;;5.63;1.13;;;;;;;6.07;68.80;95353.84;1284207;23;20059;-68
2021/03/13 01:33:34;;;;;;;4.30;1.20;;;;;;;6.06;69.23;95353.03;1284262;23;20079;-68
2021/03/13 01:34:05;;;;;;;7.83;1.17;;;;;;;6.07;68.96;95345.88;1284447;23;19993;-68
2021/03/13 01:34:35;;;;;;;5.90;1.17;;;;;;;6.07;69.00;95349.31;1284557;23;20003;-68
2021/03/13 01:35:07;;;;;;;4.13;1.20;;;;;;;6.08;69.01;95358.09;1284855;23;20000;-68
2021/03/13 01:35:37;;;;;;;6.53;1.55;;;;;;;6.07;69.15;95340.56;1278021;23;20094;-68
2021/03/13 01:36:08;;;;;;;3.97;1.20;;;;;;;6.05;68.99;95351.44;1278170;23;19996;-69
2021/03/13 01:36:38;;;;;;;7.33;1.13;;;;;;;6.06;69.26;95354.91;1278083;23;20128;-69
2021/03/13 01:37:10;;;;;;;5.47;1.27;;;;;;;6.06;69.31;95350.38;1278210;23;20370;-67
2021/03/13 01:37:41;;;;;;;5.28;1.40;;;;;;;6.04;69.42;95347.22;1284311;23;20040;-68
2021/03/13 01:38:11;;;;;;;4.47;1.00;;;;;;;6.04;69.24;95352.50;1284364;23;20051;-68
2021/03/13 01:38:42;;;;;;;5.13;1.00;;;;;;;6.06;68.40;95347.75;1284261;23;20000;-68
2021/03/13 01:39:12;;;;;;;5.43;1.20;;;;;;;6.09;69.07;95349.06;1278074;23;20049;-68
2021/03/13 01:39:43;;;;;;;4.93;1.40;;;;;;;6.08;68.81;95353.56;1278024;23;20008;-68
2021/03/13 01:40:15;;;;;;;4.57;0.97;;;;;;;6.09;68.90;95346.41;1272093;23;20005;-68
2021/03/13 01:40:45;;;;;;;3.42;1.20;;;;;;;6.06;69.14;95345.09;1278199;23;20009;-68
2021/03/13 01:41:16;;;;;;;5.20;1.20;;;;;;;6.05;69.26;95345.34;1284450;23;20357;-68
2021/03/13 01:41:46;;;;;;;2.33;0.90;;;;;;;6.03;69.28;95334.97;1284400;23;20409;-68
2021/03/13 01:42:16;;;;;;;8.07;1.47;;;;;;;6.02;69.25;95341.34;1284612;23;20019;-68
2021/03/13 01:42:48;;;;;;;5.30;1.30;;;;;;;6.01;69.38;95341.59;1284695;23;20043;-68
2021/03/13 01:43:18;;;;;;;4.10;1.30;;;;;;;5.99;69.40;95339.22;1284713;23;20003;-69
2021/03/13 01:43:48;;;;;;;3.70;1.20;;;;;;;6.02;69.05;95338.69;1284656;23;19996;-68
2021/03/13 01:44:19;;;;;;;3.87;1.00;;;;;;;6.00;69.54;95343.47;1284788;23;20000;-68
2021/03/13 01:44:49;;;;;;;3.47;1.10;;;;;;;6.04;69.46;95341.06;1284643;23;20000;-68
2021/03/13 01:45:21;;;;;;;7.33;1.70;;;;;;;6.02;69.21;95338.69;1284613;23;20469;-68
2021/03/13 01:45:52;;;;;;;5.60;1.30;;;;;;;5.98;69.37;95343.69;1284572;23;19996;-68
2021/03/13 01:46:22;;;;;;;7.70;1.40;;;;;;;5.99;69.24;95340.00;1284765;23;20017;-68
2021/03/13 01:46:53;;;;;;;3.70;1.10;;;;;;;5.96;69.28;95337.06;1284574;23;20000;-68
2021/03/13 01:47:24;;;;;;;6.93;1.33;;;;;;;5.93;69.95;95335.72;1284271;23;19997;-68
2021/03/13 01:47:54;;;;;;;4.13;1.25;;;;;;;5.93;69.83;95342.88;1284377;23;19993;-67
2021/03/13 01:48:35;;;;;;;4.80;1.23;;;;;;;5.95;69.56;95338.13;1284381;23;20001;-68
2021/03/13 01:49:05;;;;;;;5.63;1.45;;;;;;;5.95;69.12;95333.63;1284431;23;20000;-68
2021/03/13 01:49:36;;;;;;;5.37;1.13;;;;;;;5.94;69.07;95333.88;1284265;23;19999;-68
2021/03/13 01:50:07;;;;;;;5.23;1.10;;;;;;;5.91;69.38;95337.84;1277758;23;19989;-68
2021/03/13 01:50:37;;;;;;;4.72;1.30;;;;;;;5.93;69.59;95330.41;1278084;23;20150;-69
2021/03/13 01:51:08;;;;;;;5.70;1.33;;;;;;;5.90;69.43;95332.75;1278264;23;20037;-69
2021/03/13 01:51:39;;;;;;;4.40;1.23;;;;;;;5.89;69.84;95333.81;1284427;23;20016;-68
2021/03/13 01:52:09;;;;;;;3.67;1.23;;;;;;;5.93;69.39;95330.41;1284663;23;19993;-69
2021/03/13 01:52:40;;;;;;;3.50;1.20;;;;;;;5.93;69.57;95337.56;1284138;23;19999;-69
2021/03/13 01:53:10;;;;;;;7.57;1.30;;;;;;;5.88;69.54;95326.91;1284330;23;20012;-69
2021/03/13 01:53:41;;;;;;;4.70;1.43;;;;;;;5.87;69.37;95320.00;1277815;23;20362;-69
2021/03/13 01:54:11;;;;;;;6.00;1.40;;;;;;;5.88;69.29;95334.84;1278068;23;20073;-69
2021/03/13 01:54:42;;;;;;;4.67;1.20;;;;;;;5.84;69.61;95313.38;1284304;23;20020;-69
2021/03/13 01:55:12;;;;;;;4.33;1.50;;;;;;;5.82;69.91;95325.28;1278023;23;20052;-70
2021/03/13 01:55:43;;;;;;;6.07;1.40;;;;;;;5.85;69.41;95319.47;1284318;23;20020;-69
2021/03/13 01:56:15;;;;;;;4.57;1.20;;;;;;;5.85;69.60;95322.13;1278157;23;20000;-69
2021/03/13 01:56:45;;;;;;;3.47;1.20;;;;;;;5.85;69.31;95322.13;1272383;23;19990;-67
2021/03/13 01:57:16;;;;;;;5.03;1.40;;;;;;;5.84;69.16;95323.19;1271922;23;19998;-69
2021/03/13 01:57:47;;;;;;;6.57;1.50;;;;;;;5.83;69.14;95325.00;1272453;23;20435;-68
2021/03/13 01:58:17;;;;;;;4.33;1.10;;;;;;;5.82;69.22;95315.47;1278345;23;20001;-69
2021/03/13 01:58:47;;;;;;;5.70;1.30;;;;;;;5.80;69.42;95322.88;1284196;23;19989;-68
2021/03/13 01:59:18;;;;;;;3.50;1.27;;;;;;;5.81;69.35;95305.91;1284540;23;19992;-68
2021/03/13 01:59:49;;;;;;;3.57;1.10;;;;;;;5.85;69.02;95314.97;1284677;23;20001;-68
2021/03/13 02:00:22;;;;;;;6.17;1.30;;;;;;;5.85;69.00;95314.97;1284345;23;19993;-68
2021/03/13 02:00:53;;;;;;;6.70;1.30;;;;;;;5.81;69.86;95299.81;1284039;23;20072;-69
2021/03/13 02:01:23;;;;;;;5.17;1.30;;;;;;;5.82;69.43;95312.00;1284347;23;20075;-68
2021/03/13 02:01:54;;;;;;;3.53;1.10;;;;;;;5.83;69.84;95306.44;1278129;23;20020;-68
2021/03/13 02:02:24;;;;;;;6.03;1.47;;;;;;;5.81;69.67;95308.56;1278211;23;20350;-68
2021/03/13 02:02:55;;;;;;;5.87;1.47;;;;;;;5.78;69.69;95302.97;1284376;23;19997;-68
2021/03/13 02:03:25;;;;;;;5.70;1.37;;;;;;;5.79;69.68;95310.69;1278200;23;20009;-69
2021/03/13 02:03:58;;;;;;;8.47;1.83;;;;;;;5.79;69.49;95296.63;1278073;23;20342;-69
2021/03/13 02:04:28;;;;;;;4.70;1.40;;;;;;;5.77;69.90;95301.38;1277939;23;20347;-68
2021/03/13 02:04:59;;;;;;;6.60;1.30;;;;;;;5.73;70.06;95303.72;1278564;23;20004;-68
2021/03/13 02:05:32;;;;;;;6.20;1.63;;;;;;;5.73;70.32;95298.44;1284394;23;20008;-68
2021/03/13 02:06:03;;;;;;;5.97;1.40;;;;;;;5.73;69.82;95301.91;1284977;23;19993;-69
2021/03/13 02:06:33;;;;;;;4.73;1.20;;;;;;;5.73;69.75;95301.09;1286545;23;20052;-69
2021/03/13 02:07:23;;;;;;;3.70;1.20;;;;;;;5.72;69.97;95305.59;1286666;23;19993;-69
2021/03/13 02:08:11;;;;;;;5.55;1.38;;;;;;;5.74;70.11;95311.44;1284404;23;19997;-70
2021/03/13 02:08:47;;;;;;;6.75;1.45;;;;;;;5.72;70.65;95304.78;1284312;23;20003;-70
2021/03/13 02:09:46;;;;;;;5.82;1.63;;;;;;;5.73;69.92;95298.44;1278194;23;20461;-68
2021/03/13 02:10:31;;;;;;;5.97;1.40;;;;;;;5.71;69.83;95301.34;1271451;23;20002;-68
2021/03/13 02:11:13;;;;;;;5.60;1.38;;;;;;;5.71;70.30;95290.75;1280511;23;20308;-68
2021/03/13 02:11:56;;;;;;;5.35;1.25;;;;;;;5.72;69.93;95305.59;1278171;23;20543;-69
2021/03/13 02:12:50;;;;;;;6.60;1.50;;;;;;;5.72;70.16;95294.97;1284400;23;20446;-69
2021/03/13 02:13:25;;;;;;;3.90;1.10;;;;;;;5.71;70.19;95287.28;1279323;23;20005;-69
2021/03/13 02:14:18;;;;;;;4.10;1.25;;;;;;;5.71;70.11;95290.75;1278037;23;20527;-69
2021/03/13 02:15:08;;;;;;;4.35;1.10;;;;;;;5.68;70.31;95295.75;1278015;23;20024;-70
2021/03/13 02:15:47;;;;;;;4.55;1.35;;;;;;;5.63;70.34;95301.84;1284791;23;20001;-68
2021/03/13 02:16:57;;;;;;;3.78;1.17;;;;;;;5.66;70.33;95292.56;1278385;23;19997;-68
2021/03/13 02:17:50;;;;;;;5.32;1.30;;;;;;;5.66;70.44;95293.34;1273621;23;20363;-69
2021/03/13 02:18:29;;;;;;;7.18;1.50;;;;;;;5.61;70.79;95290.69;1272231;23;19994;-70
2021/03/13 02:19:11;;;;;;;6.82;1.20;;;;;;;5.61;70.97;95290.69;1266857;23;20045;-67
2021/03/13 02:20:26;;;;;;;4.60;1.23;;;;;;;5.64;70.48;95286.72;1280209;23;20048;-67
2021/03/13 02:21:04;;;;;;;3.25;1.27;;;;;;;5.60;70.75;95283.00;1275842;23;20001;-67
2021/03/13 02:21:58;;;;;;;4.13;0.93;;;;;;;5.61;71.03;95285.38;1284766;23;20492;-67
2021/03/13 02:22:31;;;;;;;4.10;1.17;;;;;;;5.62;70.92;95279.00;1273014;23;20002;-67
2021/03/13 02:23:01;;;;;;;5.40;1.33;;;;;;;5.61;70.93;95279.28;1278461;23;20005;-67
2021/03/13 02:23:38;;;;;;;4.20;1.40;;;;;;;5.61;71.09;95281.94;1278079;23;19997;-67
2021/03/13 02:24:34;;;;;;;4.85;1.80;;;;;;;5.59;70.97;95273.44;1272180;23;19998;-67
2021/03/13 02:25:24;;;;;;;4.53;1.13;;;;;;;5.62;70.75;95278.22;1266558;23;19998;-66
2021/03/13 02:26:00;;;;;;;6.90;1.15;;;;;;;5.59;70.88;95287.50;1275198;23;19997;-66
2021/03/13 02:26:59;;;;;;;4.07;1.15;;;;;;;5.59;71.42;95297.31;1281269;23;19999;-66
2021/03/13 02:27:42;;;;;;;4.18;1.10;;;;;;;5.58;71.20;95285.91;1284987;23;20004;-66
2021/03/13 02:28:24;;;;;;;4.95;1.45;;;;;;;5.57;71.35;95284.28;1284655;23;20003;-66
2021/03/13 02:28:58;;;;;;;6.50;1.50;;;;;;;5.56;71.36;95290.63;1278417;23;19997;-67
2021/03/13 02:29:35;;;;;;;4.03;1.30;;;;;;;5.56;71.72;95285.34;1272239;23;20009;-67
2021/03/13 02:30:06;;;;;;;3.65;1.10;;;;;;;5.56;71.77;95276.59;1278276;23;20005;-67
2021/03/13 02:30:36;;;;;;;4.90;1.38;;;;;;;5.56;71.27;95282.69;1280358;23;20000;-67
2021/03/13 02:31:07;;;;;;;4.50;1.30;;;;;;;5.56;71.50;95279.25;1273665;23;20006;-67
2021/03/13 02:31:37;;;;;;;3.60;1.23;;;;;;;5.54;71.96;95274.22;1272285;23;19998;-67
2021/03/13 02:32:11;;;;;;;4.90;1.40;;;;;;;5.55;71.92;95280.31;1266202;23;20005;-67
2021/03/13 02:32:59;;;;;;;3.05;1.00;;;;;;;5.53;72.00;95269.97;1267694;23;20313;-67
2021/03/13 02:33:35;;;;;;;6.05;1.30;;;;;;;5.55;71.59;95286.41;1276640;23;20069;-67
2021/03/13 02:34:05;;;;;;;5.22;1.50;;;;;;;5.55;71.88;95281.09;1277688;23;20001;-67
2021/03/13 02:34:36;;;;;;;3.43;0.93;;;;;;;5.56;72.07;95274.75;1278523;23;19997;-67